Latest Weather Observations for Keith West

IDS60801

Issued at 5:51 pm CST Thursday 9 April 2020 (issued every 10 minutes, with the page automatically refreshed every 10 minutes)

About weather observations | Map of weather stations | Latest weather observations for SA | Other Formats
Station Details ID: 025557 Name: MUNKORA Lat: -36.11 Lon: 140.33 Height: 27.0 m
Data from the previous 72 hours. | See also: Recent months at Keith West
Date/Time
CST
Temp
°C
App
Temp
°C
Dew
Point
°C
Rel
Hum
%
Delta-T
°C
Wind Press
QNH
hPa
Press
MSL
hPa
Rain since
9am
mm
Dir  Spd
km/h
Gust
km/h
Spd
kts
Gust
kts
09/05:30pm 21.2 19.3 7.4 41 7.1 ESE 7 9 4 5 1020.4 1020.4 0.0
09/05:00pm 23.2 20.0 6.9 35 8.4 ESE 13 17 7 9 1020.3 1020.3 0.0
09/04:30pm 23.6 20.8 6.8 34 8.7 SE 11 19 6 10 1020.4 1020.4 0.0
09/04:00pm 23.8 19.9 7.0 34 8.7 E 17 20 9 11 1020.6 1020.6 0.0
09/03:30pm 24.3 20.1 7.4 34 8.8 E 19 28 10 15 1020.7 1020.7 0.0
09/03:00pm 24.0 20.3 8.0 36 8.4 ESE 17 24 9 13 1020.8 1020.8 0.0
09/02:30pm 23.0 20.3 7.5 37 8.1 ESE 11 20 6 11 1021.2 1021.2 0.0
09/02:00pm 24.1 22.0 8.1 36 8.5 SE 9 35 5 19 1021.4 1021.4 0.0
09/01:30pm 23.4 21.0 8.7 39 7.8 SE 11 17 6 9 1021.8 1021.8 0.0
09/01:00pm 23.1 20.9 9.5 42 7.4 ESE 11 19 6 10 1022.4 1022.4 0.0
09/12:30pm 22.2 20.2 8.7 42 7.1 SE 9 17 5 9 1023.1 1023.1 0.0
09/12:00pm 21.9 19.2 9.1 44 6.8 E 13 19 7 10 1023.5 1023.5 0.0
09/11:30am 21.9 19.2 10.4 48 6.3 ENE 15 20 8 11 1024.0 1024.0 0.0
09/11:00am 20.8 18.2 10.6 52 5.6 ENE 15 24 8 13 1024.5 1024.5 0.0
09/10:30am 18.9 16.2 10.2 57 4.6 ENE 15 20 8 11 1024.8 1024.8 0.0
09/10:00am 17.8 16.0 10.7 63 3.8 E 11 17 6 9 1025.2 1025.2 0.0
09/09:30am 16.1 14.6 10.6 70 2.9 ESE 9 13 5 7 1025.4 1025.4 0.0
09/09:00am 13.1 11.5 10.3 83 1.4 SE 9 11 5 6 1025.6 1025.6 0.0
09/08:30am 10.8 9.6 10.2 96 0.3 S 7 9 4 5 1025.8 1025.8 0.0
09/08:00am 9.1 8.0 8.6 97 0.2 SE 4 6 2 3 1026.0 1026.0 0.0
09/07:30am 7.5 6.4 7.1 97 0.2 SSE 2 4 1 2 1025.8 1025.8 0.0
09/07:00am 5.9 4.1 5.5 97 0.2 S 4 6 2 3 1025.7 1025.7 0.0
09/06:30am 5.5 3.3 5.2 98 0.1 SW 6 7 3 4 1025.6 1025.6 0.0
09/06:00am 4.6 3.0 4.3 98 0.1 SSW 2 4 1 2 1025.3 1025.3 0.0
09/05:30am 4.9 2.5 4.5 97 0.2 SSW 6 7 3 4 1025.4 1025.4 0.0
09/05:00am 4.7 2.1 4.3 97 0.2 SSW 7 9 4 5 1025.1 1025.1 0.0
09/04:30am 4.5 2.4 3.8 95 0.3 S 4 6 2 3 1025.0 1025.0 0.0
09/04:00am 5.5 4.4 4.9 96 0.3 CALM 0 0 0 0 1024.8 1024.8 0.0
09/03:30am 6.1 4.3 5.5 96 0.3 SSW 4 4 2 2 1024.8 1024.8 0.0
09/03:00am 6.1 3.9 5.4 95 0.3 SSE 6 7 3 4 1024.8 1024.8 0.0
09/02:30am 5.4 3.4 4.4 93 0.4 S 4 6 2 3 1024.9 1024.9 0.0
09/02:00am 6.9 4.8 5.8 93 0.5 SSW 6 7 3 4 1025.1 1025.1 0.0
09/01:30am 8.1 5.3 7.0 93 0.5 SSW 11 11 6 6 1025.4 1025.4 0.0
09/01:00am 7.3 5.2 5.8 90 0.7 SSW 6 6 3 3 1025.4 1025.4 0.0
09/12:30am 7.9 5.8 5.9 87 0.9 SSW 6 6 3 3 1025.3 1025.3 0.0
09/12:00am 9.3 7.4 6.6 83 1.2 SSE 6 9 3 5 1025.4 1025.4 0.0
 
Date/Time
CST
Temp
°C
App
Temp
°C
Dew
Point
°C
Rel
Hum
%
Delta-T
°C
Wind Press
QNH
hPa
Press
MSL
hPa
Rain since
9am
mm
Dir  Spd
km/h
Gust
km/h
Spd
kts
Gust
kts
08/11:30pm 10.2 8.3 7.4 83 1.3 SSE 7 9 4 5 1025.5 1025.5 0.0
08/11:00pm 11.0 8.7 7.5 79 1.7 SSE 9 11 5 6 1025.6 1025.6 0.0
08/10:30pm 11.4 9.2 7.7 78 1.8 SSE 9 11 5 6 1025.7 1025.7 0.0
08/10:00pm 12.1 9.9 8.0 76 2.0 SSE 9 15 5 8 1025.6 1025.6 0.0
08/09:30pm 12.6 10.5 8.1 74 2.2 SSE 9 13 5 7 1025.6 1025.6 0.0
08/09:00pm 13.6 10.8 8.4 71 2.6 SSE 13 19 7 10 1025.2 1025.2 0.0
08/08:30pm 13.9 11.2 9.1 73 2.4 SSE 13 17 7 9 1024.9 1024.9 0.0
08/08:00pm 14.6 12.1 9.6 72 2.6 S 13 17 7 9 1024.6 1024.6 0.0
08/07:30pm 15.4 12.9 9.7 69 2.9 S 13 19 7 10 1024.1 1024.1 0.0
08/07:00pm 16.0 13.1 9.7 66 3.3 S 15 20 8 11 1023.8 1023.8 0.0
08/06:30pm 15.8 13.3 8.1 60 3.9 S 11 13 6 7 1023.6 1023.6 0.0
08/06:00pm 17.0 15.1 7.6 54 4.7 S 7 11 4 6 1023.3 1023.3 0.0
08/05:30pm 18.7 16.5 7.8 49 5.5 S 9 15 5 8 1023.2 1023.2 0.0
08/05:00pm 19.2 15.4 7.6 47 5.9 SSE 17 22 9 12 1023.1 1023.1 0.0
08/04:30pm 19.6 15.4 7.4 45 6.2 SSE 19 28 10 15 1023.0 1023.0 0.0
08/04:00pm 19.7 15.5 7.4 45 6.3 SSE 19 35 10 19 1022.9 1022.9 0.0
08/03:30pm 20.6 16.9 7.9 44 6.6 S 17 24 9 13 1023.0 1023.0 0.0
08/03:00pm 19.8 15.9 7.2 44 6.4 SSE 17 28 9 15 1023.0 1023.0 0.0
08/02:30pm 19.4 15.7 8.1 48 5.8 SSE 17 28 9 15 1023.1 1023.1 0.0
08/02:00pm 19.8 16.0 7.5 45 6.3 SSE 17 26 9 14 1023.3 1023.3 0.0
08/01:30pm 19.9 16.3 8.3 47 6.0 SE 17 24 9 13 1023.5 1023.5 0.0
08/01:00pm 19.6 15.4 8.3 48 5.9 SSE 20 30 11 16 1024.0 1024.0 0.0
08/12:30pm 20.1 16.1 8.4 47 6.1 SE 19 28 10 15 1024.3 1024.3 0.0
08/12:00pm 18.8 14.9 8.5 51 5.3 SSE 19 24 10 13 1024.7 1024.7 0.0
08/11:30am 18.8 15.2 8.2 50 5.4 SE 17 28 9 15 1025.1 1025.1 0.0
08/11:00am 17.8 13.8 8.4 54 4.8 SE 19 30 10 16 1025.3 1025.3 0.0
08/10:30am 16.1 11.7 7.3 56 4.4 SE 20 28 11 15 1025.5 1025.5 0.0
08/10:00am 16.1 12.9 8.6 61 3.8 SSE 15 20 8 11 1025.8 1025.8 0.0
08/09:30am 14.7 11.8 8.2 65 3.2 SSE 13 20 7 11 1026.1 1026.1 0.0
08/09:00am 13.8 11.0 8.4 70 2.7 SSE 13 17 7 9 1026.1 1026.1 0.0
08/08:30am 13.3 10.7 9.4 77 2.0 SSE 13 19 7 10 1026.0 1026.0 0.0
08/08:00am 11.8 9.4 8.6 81 1.6 S 11 17 6 9 1025.8 1025.8 0.0
08/07:30am 9.9 9.0 9.4 97 0.2 S 4 7 2 4 1025.5 1025.5 0.0
08/07:00am 8.0 7.1 7.6 97 0.2 SSW 2 4 1 2 1025.2 1025.2 0.0
08/06:30am 7.0 5.5 6.6 97 0.2 S 4 6 2 3 1024.9 1024.9 0.0
08/06:00am 4.8 2.8 4.4 97 0.2 S 4 6 2 3 1024.7 1024.7 0.0
08/05:30am 4.2 1.7 3.6 96 0.2 S 6 7 3 4 1024.6 1024.6 0.0
08/05:00am 4.8 2.8 4.2 96 0.3 S 4 6 2 3 1024.3 1024.3 0.0
08/04:30am 5.6 3.3 4.9 95 0.3 S 6 7 3 4 1024.2 1024.2 0.0
08/04:00am 6.2 4.0 5.5 95 0.3 SSW 6 6 3 3 1024.1 1024.1 0.0
08/03:30am 6.7 5.0 5.8 94 0.4 SSW 4 6 2 3 1023.9 1023.9 0.0
08/03:00am 7.3 5.1 6.4 94 0.4 SSW 7 9 4 5 1023.9 1023.9 0.0
08/02:30am 7.7 5.8 6.8 94 0.4 SSW 6 7 3 4 1024.2 1024.2 0.0
08/02:00am 7.3 4.8 6.4 94 0.4 SSW 9 9 5 5 1024.1 1024.1 0.0
08/01:30am 6.7 4.6 5.7 93 0.4 SSW 6 7 3 4 1024.0 1024.0 0.0
08/01:00am 6.6 5.4 4.6 87 0.9 CALM 0 2 0 1 1023.8 1023.8 0.0
08/12:30am 8.2 6.1 6.0 86 1.0 S 6 6 3 3 1023.7 1023.7 0.0
08/12:00am 8.5 6.5 6.1 85 1.1 S 6 6 3 3 1023.8 1023.8 0.0
 
Date/Time
CST
Temp
°C
App
Temp
°C
Dew
Point
°C
Rel
Hum
%
Delta-T
°C
Wind Press
QNH
hPa
Press
MSL
hPa
Rain since
9am
mm
Dir  Spd
km/h
Gust
km/h
Spd
kts
Gust
kts
07/11:30pm 9.4 7.5 6.5 82 1.3 SSE 6 9 3 5 1023.9 1023.9 0.0
07/11:00pm 10.4 8.3 6.5 77 1.8 S 7 9 4 5 1023.9 1023.9 0.0
07/10:30pm 10.7 8.6 6.5 75 2.0 S 7 13 4 7 1024.0 1024.0 0.0
07/10:00pm 10.4 8.4 6.4 76 1.9 SSE 6 9 3 5 1023.8 1023.8 0.0
07/09:30pm 11.0 8.5 6.4 73 2.1 SE 9 11 5 6 1023.7 1023.7 0.0
07/09:00pm 12.4 9.2 6.9 69 2.6 SSE 13 17 7 9 1023.7 1023.7 0.0
07/08:30pm 12.7 10.3 7.0 68 2.7 SSE 9 15 5 8 1023.6 1023.6 0.0
07/08:00pm 13.0 10.6 6.8 66 3.0 SSE 9 13 5 7 1023.4 1023.4 0.0
07/07:30pm 12.9 10.8 6.7 66 3.0 SSE 7 11 4 6 1023.3 1023.3 0.0
07/07:00pm 13.7 10.5 6.8 63 3.3 SSE 13 17 7 9 1023.0 1023.0 0.0
07/06:30pm 14.9 10.9 6.7 58 4.0 SSE 17 20 9 11 1022.5 1022.5 0.0
07/06:00pm 16.0 13.2 7.0 55 4.4 SE 11 15 6 8 1022.1 1022.1 0.0
07/05:30pm 17.1 14.7 7.2 52 4.9 SE 9 11 5 6 1021.8 1021.8 0.0
07/05:00pm 18.0 15.6 6.8 48 5.6 ESE 9 15 5 8 1021.6 1021.6 0.0
07/04:30pm 18.3 16.4 6.5 46 5.8 ESE 6 13 3 7 1021.6 1021.6 0.0
07/04:00pm 18.5 16.0 6.7 46 5.9 SSE 9 13 5 7 1021.6 1021.6 0.0
07/03:30pm 19.0 16.6 7.1 46 6.0 SSW 9 15 5 8 1021.8 1021.8 0.0
07/03:00pm 18.1 16.2 6.6 47 5.7 SSW 6 7 3 4 1021.9 1021.9 0.0
07/02:30pm 19.0 17.4 6.5 44 6.2 S 4 7 2 4 1022.0 1022.0 0.0
07/02:00pm 18.4 16.2 6.3 45 6.0 SSW 7 9 4 5 1022.3 1022.3 0.0
07/01:30pm 17.7 15.7 6.3 47 5.6 SE 6 7 3 4 1022.7 1022.7 0.0
07/01:00pm 17.5 16.7 6.4 48 5.5 CALM 0 4 0 2 1023.0 1023.0 0.0
07/12:30pm 17.6 15.6 6.2 47 5.6 NNW 6 11 3 6 1023.4 1023.4 0.0
07/12:00pm 18.0 16.5 6.8 48 5.6 ENE 4 9 2 5 1023.6 1023.6 0.0
07/11:30am 17.6 15.5 6.8 49 5.3 NNE 7 13 4 7 1024.1 1024.1 0.0
07/11:00am 16.9 14.8 6.7 51 5.0 NNE 7 11 4 6 1024.4 1024.4 0.0
07/10:30am 16.4 13.3 7.1 54 4.6 ENE 13 17 7 9 1024.4 1024.4 0.0
07/10:00am 16.0 13.3 7.5 57 4.2 NE 11 19 6 10 1024.6 1024.6 0.0
07/09:30am 15.1 12.4 7.2 59 3.9 NE 11 17 6 9 1024.7 1024.7 0.0
07/09:00am 14.4 12.8 7.9 65 3.2 NE 6 7 3 4 1024.7 1024.7 0.2
07/08:30am 13.6 11.3 7.4 66 3.0 ENE 9 13 5 7 1024.5 1024.5 0.2
07/08:00am 13.2 11.4 7.9 70 2.6 NNE 7 9 4 5 1024.3 1024.3 0.2
07/07:30am 12.9 11.4 8.4 74 2.2 NNE 6 7 3 4 1024.1 1024.1 0.2
07/07:00am 12.4 11.5 9.1 80 1.7 NE 4 6 2 3 1023.6 1023.6 0.2
07/06:30am 12.3 12.0 8.8 79 1.7 CALM 0 0 0 0 1023.3 1023.3 0.2
07/06:00am 11.9 11.6 8.6 80 1.6 CALM 0 2 0 1 1023.0 1023.0 0.2
07/05:30am 12.1 11.0 8.4 78 1.8 ENE 4 6 2 3 1022.6 1022.6 0.2
07/05:00am 12.2 10.8 9.0 81 1.6 ENE 6 9 3 5 1022.4 1022.4 0.2
07/04:30am 12.1 11.0 10.8 92 0.7 NE 7 9 4 5 1022.3 1022.3 0.2
07/04:00am 12.4 13.0 11.8 96 0.3 CALM 0 0 0 0 1022.4 1022.4 0.2
07/03:30am 12.4 13.0 11.8 96 0.3 CALM 0 0 0 0 1022.3 1022.3 0.2
07/03:00am 12.3 12.8 11.7 96 0.3 CALM 0 0 0 0 1022.3 1022.3 0.2
07/02:30am 12.2 12.7 11.6 96 0.3 CALM 0 0 0 0 1022.4 1022.4 0.2
07/02:00am 12.1 12.5 11.3 95 0.4 CALM 0 0 0 0 1022.6 1022.6 0.2
07/01:30am 11.9 12.3 11.1 95 0.4 CALM 0 0 0 0 1022.6 1022.6 0.2
07/01:00am 11.6 11.9 10.8 95 0.4 CALM 0 0 0 0 1022.8 1022.8 0.2
07/12:30am 11.2 11.4 10.4 95 0.4 CALM 0 0 0 0 1022.9 1022.9 0.2
07/12:00am 10.6 10.6 9.7 94 0.5 CALM 0 0 0 0 1022.8 1022.8 0.2
 
Date/Time
CST
Temp
°C
App
Temp
°C
Dew
Point
°C
Rel
Hum
%
Delta-T
°C
Wind Press
QNH
hPa
Press
MSL
hPa
Rain since
9am
mm
Dir  Spd
km/h
Gust
km/h
Spd
kts
Gust
kts
06/11:30pm 11.1 10.8 10.2 94 0.5 SE 2 2 1 1 1022.8 1022.8 0.2
06/11:00pm 11.7 11.2 10.6 93 0.6 SE 4 4 2 2 1023.0 1023.0 0.2
06/10:30pm 11.7 10.8 10.6 93 0.6 SSE 6 7 3 4 1023.2 1023.2 0.2
06/10:00pm 11.4 10.5 9.1 86 1.1 S 4 6 2 3 1023.4 1023.4 0.2
06/09:30pm 12.7 11.7 10.4 86 1.2 S 6 6 3 3 1023.5 1023.5 0.2
06/09:00pm 12.8 11.8 10.2 84 1.3 SSW 6 7 3 4 1023.3 1023.3 0.2
06/08:30pm 13.4 12.3 10.6 83 1.5 SSW 7 9 4 5 1023.2 1023.2 0.2
06/08:00pm 13.9 12.8 10.5 80 1.8 SSW 7 11 4 6 1022.9 1022.9 0.2
06/07:30pm 14.7 13.2 10.7 77 2.1 SSW 9 13 5 7 1022.7 1022.7 0.2
06/07:00pm 15.3 13.8 10.7 74 2.4 SSW 9 13 5 7 1022.6 1022.6 0.2
06/06:30pm 16.3 15.0 9.9 66 3.3 SW 7 9 4 5 1022.3 1022.3 0.2
06/06:00pm 16.8 15.4 9.7 63 3.7 SW 7 9 4 5 1022.0 1022.0 0.2

Other formats

Comma delimited format used in spreadsheet applications
http://www.bom.gov.au/fwo/IDS60801/IDS60801.95815.axf

JavaScript Object Notation format (JSON) in row-major order
http://www.bom.gov.au/fwo/IDS60801/IDS60801.95815.json

Data quality

Most of these data are generated automatically and are frequently updated. Quality checks on data are not normally performed. It is possible for incorrect values to appear. Refer to information at About Latest Weather Observations and please check the disclaimer before using these data.